sensor_id;sensor_type;location;lat;lon;timestamp;temperature;humidity
8231;DHT22;4156;50.908;6.974;2023-08-21T00:02:23;24.90;99.90
8231;DHT22;4156;50.908;6.974;2023-08-21T00:04:48;24.90;99.90
8231;DHT22;4156;50.908;6.974;2023-08-21T00:07:14;24.80;99.90
8231;DHT22;4156;50.908;6.974;2023-08-21T00:09:39;24.80;99.90
8231;DHT22;4156;50.908;6.974;2023-08-21T00:12:06;24.80;99.90
8231;DHT22;4156;50.908;6.974;2023-08-21T00:14:31;24.80;99.90
8231;DHT22;4156;50.908;6.974;2023-08-21T00:16:57;24.80;99.90
8231;DHT22;4156;50.908;6.974;2023-08-21T00:19:22;24.70;99.90
8231;DHT22;4156;50.908;6.974;2023-08-21T00:21:48;24.70;99.90
8231;DHT22;4156;50.908;6.974;2023-08-21T00:24:13;24.70;99.90
8231;DHT22;4156;50.908;6.974;2023-08-21T00:26:39;24.70;99.90
8231;DHT22;4156;50.908;6.974;2023-08-21T00:29:05;24.70;99.90
8231;DHT22;4156;50.908;6.974;2023-08-21T00:31:30;24.70;99.90
8231;DHT22;4156;50.908;6.974;2023-08-21T00:33:56;24.70;99.90
8231;DHT22;4156;50.908;6.974;2023-08-21T00:36:21;24.60;99.90
8231;DHT22;4156;50.908;6.974;2023-08-21T00:38:47;24.60;99.90
8231;DHT22;4156;50.908;6.974;2023-08-21T00:41:13;24.60;99.90
8231;DHT22;4156;50.908;6.974;2023-08-21T00:43:39;24.50;99.90
8231;DHT22;4156;50.908;6.974;2023-08-21T00:46:04;24.50;99.90
8231;DHT22;4156;50.908;6.974;2023-08-21T00:48:31;24.50;99.90
8231;DHT22;4156;50.908;6.974;2023-08-21T00:50:57;24.50;99.90
8231;DHT22;4156;50.908;6.974;2023-08-21T00:53:23;24.40;99.90
8231;DHT22;4156;50.908;6.974;2023-08-21T00:55:49;24.50;99.90
8231;DHT22;4156;50.908;6.974;2023-08-21T00:58:16;24.40;99.90
8231;DHT22;4156;50.908;6.974;2023-08-21T01:00:46;24.40;99.90
8231;DHT22;4156;50.908;6.974;2023-08-21T01:03:14;24.40;99.90
8231;DHT22;4156;50.908;6.974;2023-08-21T01:05:40;24.40;99.90
8231;DHT22;4156;50.908;6.974;2023-08-21T01:08:14;24.40;99.90
8231;DHT22;4156;50.908;6.974;2023-08-21T01:10:58;24.40;99.90
8231;DHT22;4156;50.908;6.974;2023-08-21T01:13:34;24.40;99.90
8231;DHT22;4156;50.908;6.974;2023-08-21T01:16:06;24.50;99.90
8231;DHT22;4156;50.908;6.974;2023-08-21T01:18:33;24.50;99.90
8231;DHT22;4156;50.908;6.974;2023-08-21T01:21:01;24.40;99.90
8231;DHT22;4156;50.908;6.974;2023-08-21T01:23:38;24.40;99.90
8231;DHT22;4156;50.908;6.974;2023-08-21T01:26:04;24.30;99.90
8231;DHT22;4156;50.908;6.974;2023-08-21T01:28:31;24.30;99.90
8231;DHT22;4156;50.908;6.974;2023-08-21T01:33:30;24.30;99.90
8231;DHT22;4156;50.908;6.974;2023-08-21T01:35:58;24.10;99.90
8231;DHT22;4156;50.908;6.974;2023-08-21T01:38:25;24.10;99.90
8231;DHT22;4156;50.908;6.974;2023-08-21T01:40:51;24.20;99.90
8231;DHT22;4156;50.908;6.974;2023-08-21T01:43:16;24.20;99.90
8231;DHT22;4156;50.908;6.974;2023-08-21T01:45:42;24.10;99.90
8231;DHT22;4156;50.908;6.974;2023-08-21T01:48:07;24.10;99.90
8231;DHT22;4156;50.908;6.974;2023-08-21T01:50:33;23.90;99.90
8231;DHT22;4156;50.908;6.974;2023-08-21T01:52:59;24.10;99.90
8231;DHT22;4156;50.908;6.974;2023-08-21T01:55:24;24.20;99.90
8231;DHT22;4156;50.908;6.974;2023-08-21T01:57:50;24.30;99.90
8231;DHT22;4156;50.908;6.974;2023-08-21T02:00:15;24.30;99.90
8231;DHT22;4156;50.908;6.974;2023-08-21T02:02:41;24.20;99.90
8231;DHT22;4156;50.908;6.974;2023-08-21T02:05:06;24.10;99.90
8231;DHT22;4156;50.908;6.974;2023-08-21T02:07:32;24.10;99.90
8231;DHT22;4156;50.908;6.974;2023-08-21T02:09:57;24.10;99.90
8231;DHT22;4156;50.908;6.974;2023-08-21T02:12:23;24.10;99.90
8231;DHT22;4156;50.908;6.974;2023-08-21T02:14:49;24.10;99.90
8231;DHT22;4156;50.908;6.974;2023-08-21T02:17:14;24.10;99.90
8231;DHT22;4156;50.908;6.974;2023-08-21T02:19:40;24.00;99.90
8231;DHT22;4156;50.908;6.974;2023-08-21T02:22:05;24.10;99.90
8231;DHT22;4156;50.908;6.974;2023-08-21T02:24:31;24.00;99.90
8231;DHT22;4156;50.908;6.974;2023-08-21T02:26:56;24.00;99.90
8231;DHT22;4156;50.908;6.974;2023-08-21T02:29:22;24.00;99.90
8231;DHT22;4156;50.908;6.974;2023-08-21T02:31:47;24.00;99.90
8231;DHT22;4156;50.908;6.974;2023-08-21T02:34:13;24.00;99.90
8231;DHT22;4156;50.908;6.974;2023-08-21T02:36:38;24.00;99.90
8231;DHT22;4156;50.908;6.974;2023-08-21T02:39:04;23.90;99.90
8231;DHT22;4156;50.908;6.974;2023-08-21T02:41:30;23.80;99.90
8231;DHT22;4156;50.908;6.974;2023-08-21T02:43:56;23.80;99.90
8231;DHT22;4156;50.908;6.974;2023-08-21T02:46:21;23.70;99.90
8231;DHT22;4156;50.908;6.974;2023-08-21T02:48:47;23.70;99.90
8231;DHT22;4156;50.908;6.974;2023-08-21T02:51:12;23.70;99.90
8231;DHT22;4156;50.908;6.974;2023-08-21T02:53:38;23.80;99.90
8231;DHT22;4156;50.908;6.974;2023-08-21T02:56:04;23.70;99.90
8231;DHT22;4156;50.908;6.974;2023-08-21T02:58:29;23.70;99.90
8231;DHT22;4156;50.908;6.974;2023-08-21T03:00:55;23.70;99.90
8231;DHT22;4156;50.908;6.974;2023-08-21T03:03:20;23.70;99.90
8231;DHT22;4156;50.908;6.974;2023-08-21T03:05:46;23.70;99.90
8231;DHT22;4156;50.908;6.974;2023-08-21T03:08:11;23.60;99.90
8231;DHT22;4156;50.908;6.974;2023-08-21T03:10:37;23.60;99.90
8231;DHT22;4156;50.908;6.974;2023-08-21T03:13:02;23.50;99.90
8231;DHT22;4156;50.908;6.974;2023-08-21T03:15:28;23.50;99.90
8231;DHT22;4156;50.908;6.974;2023-08-21T03:17:55;23.50;99.90
8231;DHT22;4156;50.908;6.974;2023-08-21T03:20:21;23.50;99.90
8231;DHT22;4156;50.908;6.974;2023-08-21T03:22:46;23.50;99.90
8231;DHT22;4156;50.908;6.974;2023-08-21T03:25:12;23.50;99.90
8231;DHT22;4156;50.908;6.974;2023-08-21T03:27:38;23.50;99.90
8231;DHT22;4156;50.908;6.974;2023-08-21T03:30:08;23.50;99.90
8231;DHT22;4156;50.908;6.974;2023-08-21T03:32:34;23.50;99.90
8231;DHT22;4156;50.908;6.974;2023-08-21T03:34:59;23.50;99.90
8231;DHT22;4156;50.908;6.974;2023-08-21T03:37:25;23.50;99.90
8231;DHT22;4156;50.908;6.974;2023-08-21T03:39:50;23.40;99.90
8231;DHT22;4156;50.908;6.974;2023-08-21T03:42:16;23.40;99.90
8231;DHT22;4156;50.908;6.974;2023-08-21T03:44:41;23.30;99.90
8231;DHT22;4156;50.908;6.974;2023-08-21T03:47:07;23.30;99.90
8231;DHT22;4156;50.908;6.974;2023-08-21T03:49:33;23.20;99.90
8231;DHT22;4156;50.908;6.974;2023-08-21T03:51:58;23.30;99.90
8231;DHT22;4156;50.908;6.974;2023-08-21T03:54:24;23.20;99.90
8231;DHT22;4156;50.908;6.974;2023-08-21T03:56:49;23.20;99.90
8231;DHT22;4156;50.908;6.974;2023-08-21T03:59:15;23.20;99.90
8231;DHT22;4156;50.908;6.974;2023-08-21T04:01:41;23.30;99.90
8231;DHT22;4156;50.908;6.974;2023-08-21T04:04:06;23.40;99.90
8231;DHT22;4156;50.908;6.974;2023-08-21T04:06:32;23.40;99.90
8231;DHT22;4156;50.908;6.974;2023-08-21T04:08:58;23.40;99.90
8231;DHT22;4156;50.908;6.974;2023-08-21T04:11:23;23.40;99.90
8231;DHT22;4156;50.908;6.974;2023-08-21T04:13:49;23.30;99.90
8231;DHT22;4156;50.908;6.974;2023-08-21T04:16:14;23.30;99.90
8231;DHT22;4156;50.908;6.974;2023-08-21T04:18:41;23.20;99.90
8231;DHT22;4156;50.908;6.974;2023-08-21T04:21:07;23.20;99.90
8231;DHT22;4156;50.908;6.974;2023-08-21T04:23:32;23.20;99.90
8231;DHT22;4156;50.908;6.974;2023-08-21T04:26:04;23.20;99.90
8231;DHT22;4156;50.908;6.974;2023-08-21T04:28:30;23.20;99.90
8231;DHT22;4156;50.908;6.974;2023-08-21T04:30:56;23.20;99.90
8231;DHT22;4156;50.908;6.974;2023-08-21T04:33:27;23.30;99.90
8231;DHT22;4156;50.908;6.974;2023-08-21T04:35:53;23.20;99.90
8231;DHT22;4156;50.908;6.974;2023-08-21T04:38:18;23.20;99.90
8231;DHT22;4156;50.908;6.974;2023-08-21T04:40:44;23.30;99.90
8231;DHT22;4156;50.908;6.974;2023-08-21T04:43:09;23.30;99.90
8231;DHT22;4156;50.908;6.974;2023-08-21T04:45:35;23.40;99.90
8231;DHT22;4156;50.908;6.974;2023-08-21T04:48:04;23.40;99.90
8231;DHT22;4156;50.908;6.974;2023-08-21T04:50:29;23.30;99.90
8231;DHT22;4156;50.908;6.974;2023-08-21T04:52:55;23.30;99.90
8231;DHT22;4156;50.908;6.974;2023-08-21T04:55:20;23.30;99.90
8231;DHT22;4156;50.908;6.974;2023-08-21T04:57:46;23.30;99.90
8231;DHT22;4156;50.908;6.974;2023-08-21T05:00:12;23.30;99.90
8231;DHT22;4156;50.908;6.974;2023-08-21T05:02:38;23.40;99.90
8231;DHT22;4156;50.908;6.974;2023-08-21T05:05:04;23.40;99.90
8231;DHT22;4156;50.908;6.974;2023-08-21T05:07:30;23.40;99.90
8231;DHT22;4156;50.908;6.974;2023-08-21T05:09:59;23.50;99.90
8231;DHT22;4156;50.908;6.974;2023-08-21T05:12:25;23.50;99.90
8231;DHT22;4156;50.908;6.974;2023-08-21T05:14:51;23.50;99.90
8231;DHT22;4156;50.908;6.974;2023-08-21T05:17:16;23.50;99.90
8231;DHT22;4156;50.908;6.974;2023-08-21T05:19:42;23.50;99.90
8231;DHT22;4156;50.908;6.974;2023-08-21T05:22:07;23.50;99.90
8231;DHT22;4156;50.908;6.974;2023-08-21T05:24:33;23.50;99.90
8231;DHT22;4156;50.908;6.974;2023-08-21T05:26:58;23.50;99.90
8231;DHT22;4156;50.908;6.974;2023-08-21T05:29:24;23.60;99.90
8231;DHT22;4156;50.908;6.974;2023-08-21T05:31:50;23.60;99.90
8231;DHT22;4156;50.908;6.974;2023-08-21T05:34:16;23.60;99.90
8231;DHT22;4156;50.908;6.974;2023-08-21T05:36:42;23.70;99.90
8231;DHT22;4156;50.908;6.974;2023-08-21T05:39:08;23.80;99.90
8231;DHT22;4156;50.908;6.974;2023-08-21T05:41:33;23.80;99.90
8231;DHT22;4156;50.908;6.974;2023-08-21T05:43:59;23.80;99.90
8231;DHT22;4156;50.908;6.974;2023-08-21T05:46:24;23.80;99.90
8231;DHT22;4156;50.908;6.974;2023-08-21T05:48:50;23.70;99.90
8231;DHT22;4156;50.908;6.974;2023-08-21T05:51:15;23.70;99.90
8231;DHT22;4156;50.908;6.974;2023-08-21T05:53:41;23.80;99.90
8231;DHT22;4156;50.908;6.974;2023-08-21T05:56:06;23.80;99.90
8231;DHT22;4156;50.908;6.974;2023-08-21T05:58:32;23.90;99.90
8231;DHT22;4156;50.908;6.974;2023-08-21T06:00:58;23.90;99.90
8231;DHT22;4156;50.908;6.974;2023-08-21T06:03:24;23.90;99.90
8231;DHT22;4156;50.908;6.974;2023-08-21T06:05:50;24.00;99.90
8231;DHT22;4156;50.908;6.974;2023-08-21T06:08:16;24.10;99.90
8231;DHT22;4156;50.908;6.974;2023-08-21T06:10:41;24.10;99.90
8231;DHT22;4156;50.908;6.974;2023-08-21T06:13:07;24.20;99.90
8231;DHT22;4156;50.908;6.974;2023-08-21T06:15:33;24.20;99.90
8231;DHT22;4156;50.908;6.974;2023-08-21T06:17:59;24.30;99.90
8231;DHT22;4156;50.908;6.974;2023-08-21T06:20:25;24.30;99.90
8231;DHT22;4156;50.908;6.974;2023-08-21T06:22:50;24.30;99.90
8231;DHT22;4156;50.908;6.974;2023-08-21T06:25:16;24.40;99.90
8231;DHT22;4156;50.908;6.974;2023-08-21T06:27:41;24.50;99.90
8231;DHT22;4156;50.908;6.974;2023-08-21T06:30:07;24.50;99.90
8231;DHT22;4156;50.908;6.974;2023-08-21T06:32:33;24.50;99.90
8231;DHT22;4156;50.908;6.974;2023-08-21T06:34:59;24.60;99.90
8231;DHT22;4156;50.908;6.974;2023-08-21T06:37:24;24.60;99.90
8231;DHT22;4156;50.908;6.974;2023-08-21T06:39:50;24.60;99.90
8231;DHT22;4156;50.908;6.974;2023-08-21T06:42:16;24.70;99.90
8231;DHT22;4156;50.908;6.974;2023-08-21T06:44:41;24.70;99.90
8231;DHT22;4156;50.908;6.974;2023-08-21T06:47:07;24.70;99.90
8231;DHT22;4156;50.908;6.974;2023-08-21T06:49:32;24.70;99.90
8231;DHT22;4156;50.908;6.974;2023-08-21T06:51:58;24.80;99.90
8231;DHT22;4156;50.908;6.974;2023-08-21T06:54:24;24.80;99.90
8231;DHT22;4156;50.908;6.974;2023-08-21T06:56:50;24.80;99.90
8231;DHT22;4156;50.908;6.974;2023-08-21T06:59:15;24.80;99.90
8231;DHT22;4156;50.908;6.974;2023-08-21T07:01:41;24.90;99.90
8231;DHT22;4156;50.908;6.974;2023-08-21T07:04:06;25.00;99.90
8231;DHT22;4156;50.908;6.974;2023-08-21T07:06:32;25.10;99.90
8231;DHT22;4156;50.908;6.974;2023-08-21T07:08:58;25.10;99.90
8231;DHT22;4156;50.908;6.974;2023-08-21T07:11:23;25.10;99.90
8231;DHT22;4156;50.908;6.974;2023-08-21T07:13:49;25.20;99.90
8231;DHT22;4156;50.908;6.974;2023-08-21T07:16:14;25.20;99.90
8231;DHT22;4156;50.908;6.974;2023-08-21T07:18:40;25.20;99.90
8231;DHT22;4156;50.908;6.974;2023-08-21T07:21:06;25.20;99.90
8231;DHT22;4156;50.908;6.974;2023-08-21T07:23:32;25.20;99.90
8231;DHT22;4156;50.908;6.974;2023-08-21T07:25:58;25.20;99.90
8231;DHT22;4156;50.908;6.974;2023-08-21T07:28:24;25.20;99.90
8231;DHT22;4156;50.908;6.974;2023-08-21T07:30:59;25.20;99.90
8231;DHT22;4156;50.908;6.974;2023-08-21T07:33:26;25.30;99.90
8231;DHT22;4156;50.908;6.974;2023-08-21T07:36:02;25.30;99.90
8231;DHT22;4156;50.908;6.974;2023-08-21T07:38:28;25.40;99.90
8231;DHT22;4156;50.908;6.974;2023-08-21T07:41:08;25.40;99.90
8231;DHT22;4156;50.908;6.974;2023-08-21T07:43:36;25.40;99.90
8231;DHT22;4156;50.908;6.974;2023-08-21T07:46:03;25.40;99.90
8231;DHT22;4156;50.908;6.974;2023-08-21T07:48:29;25.40;99.90
8231;DHT22;4156;50.908;6.974;2023-08-21T07:50:54;25.40;99.90
8231;DHT22;4156;50.908;6.974;2023-08-21T07:53:20;25.40;99.90
8231;DHT22;4156;50.908;6.974;2023-08-21T07:55:45;25.50;99.90
8231;DHT22;4156;50.908;6.974;2023-08-21T07:58:11;25.50;99.90
8231;DHT22;4156;50.908;6.974;2023-08-21T08:00:38;25.60;99.90
8231;DHT22;4156;50.908;6.974;2023-08-21T08:03:04;25.60;99.90
8231;DHT22;4156;50.908;6.974;2023-08-21T08:05:31;25.60;99.90
8231;DHT22;4156;50.908;6.974;2023-08-21T08:07:56;25.70;99.90
8231;DHT22;4156;50.908;6.974;2023-08-21T08:10:23;25.70;99.90
8231;DHT22;4156;50.908;6.974;2023-08-21T08:12:48;25.80;99.90
8231;DHT22;4156;50.908;6.974;2023-08-21T08:15:14;25.80;99.90
8231;DHT22;4156;50.908;6.974;2023-08-21T08:17:39;25.80;99.90
8231;DHT22;4156;50.908;6.974;2023-08-21T08:20:05;25.80;99.90
8231;DHT22;4156;50.908;6.974;2023-08-21T08:22:31;25.80;99.90
8231;DHT22;4156;50.908;6.974;2023-08-21T08:24:57;25.90;99.90
8231;DHT22;4156;50.908;6.974;2023-08-21T08:27:22;25.90;99.90
8231;DHT22;4156;50.908;6.974;2023-08-21T08:29:49;25.90;99.90
8231;DHT22;4156;50.908;6.974;2023-08-21T08:32:14;25.90;99.90
8231;DHT22;4156;50.908;6.974;2023-08-21T08:34:40;26.00;99.90
8231;DHT22;4156;50.908;6.974;2023-08-21T08:37:05;26.00;99.90
8231;DHT22;4156;50.908;6.974;2023-08-21T08:39:31;26.00;99.90
8231;DHT22;4156;50.908;6.974;2023-08-21T08:41:58;26.10;99.90
8231;DHT22;4156;50.908;6.974;2023-08-21T08:44:26;26.10;99.90
8231;DHT22;4156;50.908;6.974;2023-08-21T08:46:52;26.20;99.90
8231;DHT22;4156;50.908;6.974;2023-08-21T08:49:19;26.20;99.90
8231;DHT22;4156;50.908;6.974;2023-08-21T08:51:46;26.20;99.90
8231;DHT22;4156;50.908;6.974;2023-08-21T08:54:14;26.20;99.90
8231;DHT22;4156;50.908;6.974;2023-08-21T08:56:41;26.20;99.90
8231;DHT22;4156;50.908;6.974;2023-08-21T08:59:07;26.30;99.90
8231;DHT22;4156;50.908;6.974;2023-08-21T09:01:33;26.30;99.90
8231;DHT22;4156;50.908;6.974;2023-08-21T09:03:58;26.30;99.90
8231;DHT22;4156;50.908;6.974;2023-08-21T09:06:24;26.40;99.90
8231;DHT22;4156;50.908;6.974;2023-08-21T09:08:54;26.40;99.90
8231;DHT22;4156;50.908;6.974;2023-08-21T09:11:21;26.40;99.90
8231;DHT22;4156;50.908;6.974;2023-08-21T09:13:49;26.40;99.90
8231;DHT22;4156;50.908;6.974;2023-08-21T09:16:14;26.50;99.90
8231;DHT22;4156;50.908;6.974;2023-08-21T09:18:55;26.50;99.90
8231;DHT22;4156;50.908;6.974;2023-08-21T09:21:25;26.50;99.90
8231;DHT22;4156;50.908;6.974;2023-08-21T09:24:00;26.50;99.90
8231;DHT22;4156;50.908;6.974;2023-08-21T09:26:27;26.60;99.90
8231;DHT22;4156;50.908;6.974;2023-08-21T09:28:55;26.60;99.90
8231;DHT22;4156;50.908;6.974;2023-08-21T09:31:31;26.60;99.90
8231;DHT22;4156;50.908;6.974;2023-08-21T09:33:59;26.60;99.90
8231;DHT22;4156;50.908;6.974;2023-08-21T09:36:26;26.70;99.90
8231;DHT22;4156;50.908;6.974;2023-08-21T09:38:52;26.70;99.90
8231;DHT22;4156;50.908;6.974;2023-08-21T09:41:21;26.70;99.90
8231;DHT22;4156;50.908;6.974;2023-08-21T09:43:47;26.70;99.90
8231;DHT22;4156;50.908;6.974;2023-08-21T09:46:17;26.70;99.90
8231;DHT22;4156;50.908;6.974;2023-08-21T09:48:46;26.70;99.90
8231;DHT22;4156;50.908;6.974;2023-08-21T09:51:12;26.80;99.90
8231;DHT22;4156;50.908;6.974;2023-08-21T09:53:38;26.80;99.90
8231;DHT22;4156;50.908;6.974;2023-08-21T09:56:05;26.80;99.90
8231;DHT22;4156;50.908;6.974;2023-08-21T09:58:31;26.80;99.90
8231;DHT22;4156;50.908;6.974;2023-08-21T10:00:57;26.90;99.90
8231;DHT22;4156;50.908;6.974;2023-08-21T10:03:24;26.90;99.90
8231;DHT22;4156;50.908;6.974;2023-08-21T10:05:51;26.90;99.90
8231;DHT22;4156;50.908;6.974;2023-08-21T10:08:24;26.90;99.90
8231;DHT22;4156;50.908;6.974;2023-08-21T10:10:50;27.00;99.90
8231;DHT22;4156;50.908;6.974;2023-08-21T10:13:16;27.00;99.90
8231;DHT22;4156;50.908;6.974;2023-08-21T10:15:43;27.00;99.90
8231;DHT22;4156;50.908;6.974;2023-08-21T10:20:45;27.00;99.90
8231;DHT22;4156;50.908;6.974;2023-08-21T10:23:27;27.10;99.90
8231;DHT22;4156;50.908;6.974;2023-08-21T10:26:00;27.10;99.90
8231;DHT22;4156;50.908;6.974;2023-08-21T10:31:35;27.20;99.90
8231;DHT22;4156;50.908;6.974;2023-08-21T10:34:11;27.20;99.90
8231;DHT22;4156;50.908;6.974;2023-08-21T10:39:24;27.10;99.90
8231;DHT22;4156;50.908;6.974;2023-08-21T10:41:57;27.20;99.90
8231;DHT22;4156;50.908;6.974;2023-08-21T10:47:18;27.20;99.90
8231;DHT22;4156;50.908;6.974;2023-08-21T10:49:50;27.20;99.90
8231;DHT22;4156;50.908;6.974;2023-08-21T10:52:29;27.20;99.90
8231;DHT22;4156;50.908;6.974;2023-08-21T10:54:59;27.30;99.90
8231;DHT22;4156;50.908;6.974;2023-08-21T10:57:27;27.30;99.90
8231;DHT22;4156;50.908;6.974;2023-08-21T11:02:27;27.30;99.90
8231;DHT22;4156;50.908;6.974;2023-08-21T11:04:56;27.30;99.90
8231;DHT22;4156;50.908;6.974;2023-08-21T11:07:23;27.30;99.90
8231;DHT22;4156;50.908;6.974;2023-08-21T11:09:49;27.30;99.90
8231;DHT22;4156;50.908;6.974;2023-08-21T11:12:16;27.30;99.90
8231;DHT22;4156;50.908;6.974;2023-08-21T11:14:42;27.40;99.90
8231;DHT22;4156;50.908;6.974;2023-08-21T11:17:09;27.40;99.90
8231;DHT22;4156;50.908;6.974;2023-08-21T11:19:36;27.50;99.90
8231;DHT22;4156;50.908;6.974;2023-08-21T11:22:02;27.40;99.90
8231;DHT22;4156;50.908;6.974;2023-08-21T11:27:09;27.50;99.90
8231;DHT22;4156;50.908;6.974;2023-08-21T11:29:43;27.40;99.90
8231;DHT22;4156;50.908;6.974;2023-08-21T11:32:10;27.40;99.90
8231;DHT22;4156;50.908;6.974;2023-08-21T11:34:37;27.50;99.90
8231;DHT22;4156;50.908;6.974;2023-08-21T11:37:04;27.50;99.90
8231;DHT22;4156;50.908;6.974;2023-08-21T11:39:59;27.50;99.90
8231;DHT22;4156;50.908;6.974;2023-08-21T11:42:32;27.60;99.90
8231;DHT22;4156;50.908;6.974;2023-08-21T11:45:00;27.50;99.90
8231;DHT22;4156;50.908;6.974;2023-08-21T11:47:34;27.60;99.90
8231;DHT22;4156;50.908;6.974;2023-08-21T11:50:05;27.60;99.90
8231;DHT22;4156;50.908;6.974;2023-08-21T11:52:31;27.60;99.90
8231;DHT22;4156;50.908;6.974;2023-08-21T11:55:08;27.60;99.90
8231;DHT22;4156;50.908;6.974;2023-08-21T11:57:34;27.70;99.90
8231;DHT22;4156;50.908;6.974;2023-08-21T12:00:00;27.70;99.90
8231;DHT22;4156;50.908;6.974;2023-08-21T12:02:27;27.60;99.90
8231;DHT22;4156;50.908;6.974;2023-08-21T12:04:54;27.70;99.90
8231;DHT22;4156;50.908;6.974;2023-08-21T12:07:20;27.70;99.90
8231;DHT22;4156;50.908;6.974;2023-08-21T12:09:49;27.70;99.90
8231;DHT22;4156;50.908;6.974;2023-08-21T12:12:15;27.70;99.90
8231;DHT22;4156;50.908;6.974;2023-08-21T12:14:41;27.70;99.90
8231;DHT22;4156;50.908;6.974;2023-08-21T12:17:06;27.70;99.90
8231;DHT22;4156;50.908;6.974;2023-08-21T12:19:32;27.70;99.90
8231;DHT22;4156;50.908;6.974;2023-08-21T12:21:58;27.70;99.90
8231;DHT22;4156;50.908;6.974;2023-08-21T12:24:24;27.80;99.90
8231;DHT22;4156;50.908;6.974;2023-08-21T12:26:49;27.80;99.90
8231;DHT22;4156;50.908;6.974;2023-08-21T12:29:15;27.80;99.90
8231;DHT22;4156;50.908;6.974;2023-08-21T12:31:41;27.80;99.90
8231;DHT22;4156;50.908;6.974;2023-08-21T12:34:07;27.80;99.90
8231;DHT22;4156;50.908;6.974;2023-08-21T12:36:35;27.80;99.90
8231;DHT22;4156;50.908;6.974;2023-08-21T12:39:04;27.90;99.90
8231;DHT22;4156;50.908;6.974;2023-08-21T12:41:31;27.90;99.90
8231;DHT22;4156;50.908;6.974;2023-08-21T12:43:58;27.90;99.90
8231;DHT22;4156;50.908;6.974;2023-08-21T12:46:24;27.90;99.90
8231;DHT22;4156;50.908;6.974;2023-08-21T12:48:51;27.90;99.90
8231;DHT22;4156;50.908;6.974;2023-08-21T12:51:17;27.90;99.90
8231;DHT22;4156;50.908;6.974;2023-08-21T12:53:43;28.00;99.90
8231;DHT22;4156;50.908;6.974;2023-08-21T12:56:08;28.00;99.90
8231;DHT22;4156;50.908;6.974;2023-08-21T12:58:34;28.00;99.90
8231;DHT22;4156;50.908;6.974;2023-08-21T13:00:59;28.00;99.90
8231;DHT22;4156;50.908;6.974;2023-08-21T13:03:25;28.00;99.90
8231;DHT22;4156;50.908;6.974;2023-08-21T13:05:51;28.00;99.90
8231;DHT22;4156;50.908;6.974;2023-08-21T13:08:17;28.00;99.90
8231;DHT22;4156;50.908;6.974;2023-08-21T13:10:42;28.00;99.90
8231;DHT22;4156;50.908;6.974;2023-08-21T13:13:08;28.00;99.90
8231;DHT22;4156;50.908;6.974;2023-08-21T13:15:33;28.00;99.90
8231;DHT22;4156;50.908;6.974;2023-08-21T13:17:59;28.00;99.90
8231;DHT22;4156;50.908;6.974;2023-08-21T13:20:24;28.00;99.90
8231;DHT22;4156;50.908;6.974;2023-08-21T13:22:51;28.00;99.90
8231;DHT22;4156;50.908;6.974;2023-08-21T13:25:21;28.00;99.90
8231;DHT22;4156;50.908;6.974;2023-08-21T13:27:48;28.00;99.90
8231;DHT22;4156;50.908;6.974;2023-08-21T13:30:13;28.00;99.90
8231;DHT22;4156;50.908;6.974;2023-08-21T13:32:39;28.00;99.90
8231;DHT22;4156;50.908;6.974;2023-08-21T13:35:05;27.90;99.90
8231;DHT22;4156;50.908;6.974;2023-08-21T13:37:33;27.90;99.90
8231;DHT22;4156;50.908;6.974;2023-08-21T13:39:59;27.90;99.90
8231;DHT22;4156;50.908;6.974;2023-08-21T13:42:26;27.90;99.90
8231;DHT22;4156;50.908;6.974;2023-08-21T13:44:56;28.00;99.90
8231;DHT22;4156;50.908;6.974;2023-08-21T13:47:22;28.00;99.90
8231;DHT22;4156;50.908;6.974;2023-08-21T13:49:48;28.00;99.90
8231;DHT22;4156;50.908;6.974;2023-08-21T13:52:13;28.00;99.90
8231;DHT22;4156;50.908;6.974;2023-08-21T13:54:39;28.10;99.90
8231;DHT22;4156;50.908;6.974;2023-08-21T13:57:04;28.10;99.90
8231;DHT22;4156;50.908;6.974;2023-08-21T13:59:30;28.10;99.90
8231;DHT22;4156;50.908;6.974;2023-08-21T14:01:55;28.10;99.90
8231;DHT22;4156;50.908;6.974;2023-08-21T14:04:21;28.10;99.90
8231;DHT22;4156;50.908;6.974;2023-08-21T14:06:46;28.10;99.90
8231;DHT22;4156;50.908;6.974;2023-08-21T14:09:12;28.10;99.90
8231;DHT22;4156;50.908;6.974;2023-08-21T14:11:38;28.10;99.90
8231;DHT22;4156;50.908;6.974;2023-08-21T14:14:04;28.10;99.90
8231;DHT22;4156;50.908;6.974;2023-08-21T14:16:29;28.10;99.90
8231;DHT22;4156;50.908;6.974;2023-08-21T14:18:55;28.10;99.90
8231;DHT22;4156;50.908;6.974;2023-08-21T14:21:20;28.10;99.90
8231;DHT22;4156;50.908;6.974;2023-08-21T14:23:46;28.10;99.90
8231;DHT22;4156;50.908;6.974;2023-08-21T14:26:11;28.10;99.90
8231;DHT22;4156;50.908;6.974;2023-08-21T14:28:37;28.10;99.90
8231;DHT22;4156;50.908;6.974;2023-08-21T14:31:02;28.10;99.90
8231;DHT22;4156;50.908;6.974;2023-08-21T14:33:28;28.10;99.90
8231;DHT22;4156;50.908;6.974;2023-08-21T14:35:53;28.20;99.90
8231;DHT22;4156;50.908;6.974;2023-08-21T14:38:19;28.10;99.90
8231;DHT22;4156;50.908;6.974;2023-08-21T14:40:44;28.10;99.90
8231;DHT22;4156;50.908;6.974;2023-08-21T14:43:10;28.20;99.90
8231;DHT22;4156;50.908;6.974;2023-08-21T14:45:35;28.20;99.90
8231;DHT22;4156;50.908;6.974;2023-08-21T14:48:01;28.20;99.90
8231;DHT22;4156;50.908;6.974;2023-08-21T14:50:26;28.10;99.90
8231;DHT22;4156;50.908;6.974;2023-08-21T14:52:52;28.20;99.90
8231;DHT22;4156;50.908;6.974;2023-08-21T14:55:18;28.10;99.90
8231;DHT22;4156;50.908;6.974;2023-08-21T14:57:44;28.10;99.90
8231;DHT22;4156;50.908;6.974;2023-08-21T15:00:09;28.20;99.90
8231;DHT22;4156;50.908;6.974;2023-08-21T15:02:35;28.20;99.90
8231;DHT22;4156;50.908;6.974;2023-08-21T15:05:04;28.20;99.90
8231;DHT22;4156;50.908;6.974;2023-08-21T15:07:30;28.10;99.90
8231;DHT22;4156;50.908;6.974;2023-08-21T15:09:56;28.10;99.90
8231;DHT22;4156;50.908;6.974;2023-08-21T15:12:22;28.10;99.90
8231;DHT22;4156;50.908;6.974;2023-08-21T15:14:47;28.20;99.90
8231;DHT22;4156;50.908;6.974;2023-08-21T15:17:13;28.10;99.90
8231;DHT22;4156;50.908;6.974;2023-08-21T15:19:39;28.10;99.90
8231;DHT22;4156;50.908;6.974;2023-08-21T15:22:04;28.10;99.90
8231;DHT22;4156;50.908;6.974;2023-08-21T15:24:30;28.10;99.90
8231;DHT22;4156;50.908;6.974;2023-08-21T15:26:55;28.10;99.90
8231;DHT22;4156;50.908;6.974;2023-08-21T15:29:21;28.10;99.90
8231;DHT22;4156;50.908;6.974;2023-08-21T15:31:47;28.10;99.90
8231;DHT22;4156;50.908;6.974;2023-08-21T15:34:12;28.20;99.90
8231;DHT22;4156;50.908;6.974;2023-08-21T15:36:38;28.20;99.90
8231;DHT22;4156;50.908;6.974;2023-08-21T15:39:03;28.20;99.90
8231;DHT22;4156;50.908;6.974;2023-08-21T15:41:29;28.20;99.90
8231;DHT22;4156;50.908;6.974;2023-08-21T15:43:54;28.20;99.90
8231;DHT22;4156;50.908;6.974;2023-08-21T15:46:20;28.20;99.90
8231;DHT22;4156;50.908;6.974;2023-08-21T15:48:45;28.20;99.90
8231;DHT22;4156;50.908;6.974;2023-08-21T15:51:11;28.20;99.90
8231;DHT22;4156;50.908;6.974;2023-08-21T15:53:36;28.20;99.90
8231;DHT22;4156;50.908;6.974;2023-08-21T15:56:02;28.20;99.90
8231;DHT22;4156;50.908;6.974;2023-08-21T15:58:28;28.20;99.90
8231;DHT22;4156;50.908;6.974;2023-08-21T16:00:55;28.20;99.90
8231;DHT22;4156;50.908;6.974;2023-08-21T16:03:21;28.20;99.90
8231;DHT22;4156;50.908;6.974;2023-08-21T16:05:46;28.20;99.90
8231;DHT22;4156;50.908;6.974;2023-08-21T16:08:12;28.20;99.90
8231;DHT22;4156;50.908;6.974;2023-08-21T16:10:37;28.20;99.90
8231;DHT22;4156;50.908;6.974;2023-08-21T16:13:03;28.20;99.90
8231;DHT22;4156;50.908;6.974;2023-08-21T16:15:29;28.20;99.90
8231;DHT22;4156;50.908;6.974;2023-08-21T16:17:54;28.20;99.90